createdAt,value
2022-08-21T00:03:13.858Z,17.00
2022-08-21T00:08:17.887Z,16.85
2022-08-21T00:13:21.232Z,15.73
2022-08-21T00:18:24.024Z,17.73
2022-08-21T00:23:26.879Z,17.08
2022-08-21T00:28:29.580Z,18.88
2022-08-21T00:33:32.442Z,17.55
2022-08-21T00:38:35.541Z,17.83
2022-08-21T00:43:39.669Z,18.48
2022-08-21T00:48:42.363Z,17.23
2022-08-21T00:53:49.325Z,18.33
2022-08-21T00:58:57.519Z,18.10
2022-08-21T01:04:00.296Z,19.35
2022-08-21T01:09:03.336Z,19.67
2022-08-21T01:14:06.212Z,18.25
2022-08-21T01:19:10.268Z,15.35
2022-08-21T01:24:14.963Z,16.25
2022-08-21T01:29:21.276Z,15.68
2022-08-21T01:34:24.494Z,15.20
2022-08-21T01:39:27.336Z,14.88
2022-08-21T01:44:30.371Z,14.88
2022-08-21T01:49:33.184Z,12.95
2022-08-21T01:54:36.193Z,13.00
2022-08-21T01:59:39.092Z,13.95
2022-08-21T02:04:41.810Z,13.32
2022-08-21T02:09:47.666Z,12.80
2022-08-21T02:14:50.380Z,13.43
2022-08-21T02:19:53.099Z,13.75
2022-08-21T02:24:55.834Z,13.07
2022-08-21T02:29:59.088Z,12.43
2022-08-21T02:35:01.781Z,12.02
2022-08-21T02:40:05.080Z,11.68
2022-08-21T02:45:08.996Z,11.80
2022-08-21T02:50:11.729Z,11.98
2022-08-21T02:55:14.469Z,11.02
2022-08-21T03:00:18.353Z,11.95
2022-08-21T03:05:21.505Z,11.45
2022-08-21T03:10:24.480Z,11.95
2022-08-21T03:15:27.265Z,12.52
2022-08-21T03:20:30.602Z,12.77
2022-08-21T03:25:40.559Z,12.65
2022-08-21T03:30:45.528Z,11.93
2022-08-21T03:35:52.869Z,12.10
2022-08-21T03:40:55.576Z,12.25
2022-08-21T03:45:58.385Z,12.88
2022-08-21T03:51:01.268Z,12.95
2022-08-21T03:56:04.703Z,13.32
2022-08-21T04:01:07.955Z,13.30
2022-08-21T04:06:10.689Z,13.20
2022-08-21T04:11:13.709Z,12.93
2022-08-21T04:16:16.714Z,12.38
2022-08-21T04:21:19.517Z,12.40
2022-08-21T04:26:27.187Z,13.30
2022-08-21T04:31:30.715Z,13.85
2022-08-21T04:36:34.580Z,14.02
2022-08-21T04:41:37.499Z,14.18
2022-08-21T04:46:40.221Z,13.90
2022-08-21T04:51:43.009Z,13.23
2022-08-21T04:57:04.355Z,14.95
2022-08-21T05:02:08.360Z,14.30
2022-08-21T05:07:17.467Z,15.65
2022-08-21T05:12:42.805Z,15.57
2022-08-21T05:17:55.497Z,15.10
2022-08-21T05:23:09.284Z,16.45
2022-08-21T05:28:13.030Z,16.60
2022-08-21T05:33:16.174Z,14.77
2022-08-21T05:38:19.140Z,16.75
2022-08-21T05:43:22.184Z,15.00
2022-08-21T05:48:25.872Z,15.45
2022-08-21T05:53:29.700Z,16.80
2022-08-21T05:58:34.205Z,16.17
2022-08-21T06:03:39.453Z,18.17
2022-08-21T06:08:42.202Z,18.08
2022-08-21T06:13:44.889Z,17.40
2022-08-21T06:18:47.610Z,18.02
2022-08-21T06:23:50.352Z,18.38
2022-08-21T06:28:53.129Z,20.50
2022-08-21T06:33:56.040Z,19.23
2022-08-21T06:38:58.819Z,19.52
2022-08-21T06:44:03.094Z,19.00
2022-08-21T06:49:05.961Z,26.52
2022-08-21T06:54:11.835Z,12.23
2022-08-21T06:59:14.863Z,19.02
2022-08-21T07:04:17.576Z,20.25
2022-08-21T07:09:24.415Z,5.78
2022-08-21T07:14:27.690Z,3.60
2022-08-21T07:19:30.509Z,1.90
2022-08-21T07:24:33.222Z,2.08
2022-08-21T07:29:36.026Z,1.20
2022-08-21T07:34:39.773Z,1.10
2022-08-21T07:39:42.874Z,0.93
2022-08-21T07:44:45.659Z,0.80
2022-08-21T07:49:48.429Z,0.85
2022-08-21T07:54:51.420Z,0.85
2022-08-21T07:59:56.401Z,0.90
2022-08-21T08:05:06.644Z,0.80
2022-08-21T08:10:10.096Z,0.77
2022-08-21T08:15:17.012Z,0.80
2022-08-21T08:20:21.030Z,0.93
2022-08-21T08:25:25.494Z,0.70
2022-08-21T08:30:32.885Z,0.80
2022-08-21T08:35:36.048Z,0.70
2022-08-21T08:41:14.538Z,0.90
2022-08-21T08:46:19.798Z,1.00
2022-08-21T08:51:51.523Z,1.05
2022-08-21T08:56:56.806Z,1.20
2022-08-21T09:01:59.583Z,1.20
2022-08-21T09:07:34.825Z,1.27
2022-08-21T09:13:04.964Z,1.02
2022-08-21T09:18:30.783Z,1.00
2022-08-21T09:24:17.529Z,1.00
2022-08-21T09:29:23.178Z,1.02
2022-08-21T09:34:32.312Z,1.00
2022-08-21T09:39:43.550Z,1.02
2022-08-21T09:44:49.679Z,0.93
2022-08-21T09:49:52.414Z,1.08
2022-08-21T09:54:57.217Z,0.90
2022-08-21T10:00:21.434Z,1.10
2022-08-21T10:05:26.781Z,1.00
2022-08-21T10:10:33.779Z,1.00
2022-08-21T10:15:53.103Z,0.90
2022-08-21T10:21:04.169Z,1.02
2022-08-21T10:26:51.333Z,1.00
2022-08-21T10:32:22.837Z,1.10
2022-08-21T10:37:55.129Z,1.20
2022-08-21T10:43:15.917Z,1.20
2022-08-21T10:48:47.578Z,1.05
2022-08-21T10:54:03.438Z,1.25
2022-08-21T10:59:30.123Z,2.42
2022-08-21T11:04:49.119Z,1.20
2022-08-21T11:09:53.563Z,1.40
2022-08-21T11:15:29.563Z,1.27
2022-08-21T11:20:43.982Z,1.75
2022-08-21T11:26:01.960Z,1.60
2022-08-21T11:31:24.762Z,1.45
2022-08-21T11:36:36.340Z,1.40
2022-08-21T11:42:15.334Z,1.90
2022-08-21T11:47:50.896Z,1.10
2022-08-21T11:53:06.065Z,1.15
2022-08-21T11:58:22.190Z,1.35
2022-08-21T12:03:41.087Z,1.10
2022-08-21T12:08:47.902Z,1.20
2022-08-21T12:14:14.068Z,1.08
2022-08-21T12:19:25.719Z,1.17
2022-08-21T12:24:28.401Z,1.65
2022-08-21T12:29:33.468Z,1.30
2022-08-21T12:34:46.551Z,1.30
2022-08-21T12:39:53.020Z,1.40
2022-08-21T12:44:59.117Z,1.50
2022-08-21T12:50:10.835Z,1.70
2022-08-21T12:55:16.808Z,1.88
2022-08-21T13:00:23.368Z,4.25
2022-08-21T13:05:37.235Z,5.13
2022-08-21T13:10:41.558Z,2.28
2022-08-21T13:15:47.422Z,2.40
2022-08-21T13:20:51.481Z,5.10
2022-08-21T13:25:55.372Z,6.10
2022-08-21T13:30:58.088Z,6.60
2022-08-21T13:36:12.144Z,7.68
2022-08-21T13:41:40.427Z,5.75
2022-08-21T13:47:03.324Z,5.95
2022-08-21T13:52:20.622Z,6.95
2022-08-21T13:57:34.375Z,8.18
2022-08-21T14:02:42.017Z,10.60
2022-08-21T14:07:45.389Z,8.48
2022-08-21T14:12:57.066Z,7.45
2022-08-21T14:18:20.567Z,7.67
2022-08-21T14:23:28.320Z,11.47
2022-08-21T14:28:39.316Z,11.70
2022-08-21T14:33:43.712Z,8.00
2022-08-21T14:38:46.474Z,6.33
2022-08-21T14:43:55.833Z,7.53
2022-08-21T14:49:08.922Z,9.57
2022-08-21T14:54:11.746Z,8.63
2022-08-21T14:59:14.811Z,8.77
2022-08-21T15:04:17.547Z,11.83
2022-08-21T15:09:20.269Z,12.00
2022-08-21T15:14:26.905Z,9.40
2022-08-21T15:19:30.649Z,10.50
2022-08-21T15:24:33.370Z,7.60
2022-08-21T15:29:36.429Z,8.33
2022-08-21T15:34:39.214Z,9.53
2022-08-21T15:39:42.124Z,8.60
2022-08-21T15:44:45.937Z,10.93
2022-08-21T15:49:48.789Z,14.50
2022-08-21T15:54:52.881Z,12.83
2022-08-21T15:59:59.112Z,11.27
2022-08-21T16:05:02.076Z,12.03
2022-08-21T16:10:06.242Z,16.13
2022-08-21T16:15:11.242Z,7.13
2022-08-21T16:20:27.230Z,7.33
2022-08-21T16:25:30.021Z,3.60
2022-08-21T16:30:37.415Z,3.03
2022-08-21T16:35:40.175Z,3.37
2022-08-21T16:40:43.427Z,8.70
2022-08-21T16:45:46.214Z,10.10
2022-08-21T16:50:51.119Z,9.47
2022-08-21T16:55:54.569Z,11.90
2022-08-21T17:00:58.999Z,9.67
2022-08-21T17:06:02.255Z,7.43
2022-08-21T17:11:08.319Z,5.43
2022-08-21T17:16:11.025Z,6.00
2022-08-21T17:21:18.521Z,8.30
2022-08-21T17:26:21.635Z,8.13
2022-08-21T17:31:24.557Z,6.50
2022-08-21T17:36:29.973Z,5.40
2022-08-21T17:41:32.811Z,6.30
2022-08-21T17:46:35.674Z,6.77
2022-08-21T17:51:38.488Z,8.40
2022-08-21T17:56:42.396Z,10.10
2022-08-21T18:01:46.857Z,10.13
2022-08-21T18:06:49.638Z,6.47
2022-08-21T18:11:53.343Z,4.83
2022-08-21T18:16:56.556Z,3.60
2022-08-21T18:22:03.875Z,3.40
2022-08-21T18:27:09.731Z,4.77
2022-08-21T18:32:12.755Z,4.00
2022-08-21T18:37:34.230Z,1.90
2022-08-21T18:42:43.249Z,1.50
2022-08-21T18:47:58.712Z,1.70
2022-08-21T18:53:01.559Z,1.17
2022-08-21T18:58:07.550Z,1.77
2022-08-21T19:03:10.471Z,2.03
2022-08-21T19:08:17.660Z,3.80
2022-08-21T19:13:22.364Z,5.00
2022-08-21T19:18:28.440Z,6.53
2022-08-21T19:23:52.737Z,6.43
2022-08-21T19:28:59.537Z,4.00
2022-08-21T19:34:07.626Z,2.70
2022-08-21T19:39:12.101Z,2.07
2022-08-21T19:44:20.494Z,4.53
2022-08-21T19:49:28.345Z,4.93
2022-08-21T19:54:33.223Z,4.53
2022-08-21T19:59:37.069Z,3.67
2022-08-21T20:04:40.023Z,3.30
2022-08-21T20:09:57.056Z,3.30
2022-08-21T20:14:59.953Z,3.93
2022-08-21T20:20:02.958Z,3.30
2022-08-21T20:25:05.961Z,4.10
2022-08-21T20:30:10.108Z,4.00
2022-08-21T20:35:13.692Z,4.30
2022-08-21T20:40:20.946Z,4.13
2022-08-21T20:45:31.184Z,4.33
2022-08-21T20:50:38.546Z,4.53
2022-08-21T20:55:47.347Z,5.33
2022-08-21T21:00:51.961Z,6.17
2022-08-21T21:05:59.771Z,4.77
2022-08-21T21:11:18.413Z,3.40
2022-08-21T21:16:28.607Z,2.93
2022-08-21T21:21:51.591Z,2.70
2022-08-21T21:26:58.203Z,2.40
2022-08-21T21:32:01.486Z,1.40
2022-08-21T21:37:07.605Z,1.50
2022-08-21T21:42:47.040Z,1.23
2022-08-21T21:47:57.096Z,1.53
2022-08-21T21:53:16.030Z,1.80
2022-08-21T21:58:24.813Z,1.50
2022-08-21T22:03:50.278Z,1.27
2022-08-21T22:08:54.740Z,1.10
2022-08-21T22:14:00.671Z,1.20
2022-08-21T22:19:13.668Z,1.40
2022-08-21T22:24:22.479Z,1.60
2022-08-21T22:29:25.663Z,1.50
